This is the latest recevied weather packets stored in our database for station/object Ostrach. If no packets are shown the sender has not sent any weather packets the latest 10 day(s).
| Time | Temp. | Humidity | Pressure | Rain* | Wind** | Luminosity | Snow |
|---|---|---|---|---|---|---|---|
| 1777908732 | 21.11° C | 38% | 1008.8 hPa | 0 mm | - | - | - |
| 1777906930 | 21.67° C | 35% | 1008.6 hPa | 0 mm | - | - | - |
| 1777905129 | 22.22° C | 34% | 1008.7 hPa | 0 mm | - | - | - |
| 1777903330 | 22.22° C | 39% | 1008.8 hPa | 0 mm | - | - | - |
| 1777901532 | 22.78° C | 36% | 1008.9 hPa | 0 mm | - | - | - |
| 1777899735 | 22.78° C | 37% | 1009.2 hPa | 0 mm | - | - | - |
| 1777897935 | 22.22° C | 37% | 1009.5 hPa | 0 mm | - | - | - |
| 1777896130 | 22.78° C | 39% | 1009.7 hPa | 0 mm | - | - | - |
| 1777894331 | 21.11° C | 43% | 1010 hPa | 0 mm | - | - | - |
| 1777892530 | 21.11° C | 40% | 1010.2 hPa | 0 mm | - | - | - |
| 1777890735 | 20.56° C | 38% | 1010.6 hPa | 0 mm | - | - | - |
| 1777888932 | 20.56° C | 34% | 1010.8 hPa | 0 mm | - | - | - |
| 1777887130 | 20° C | 38% | 1011.1 hPa | 0 mm | - | - | - |
| 1777885331 | 20.56° C | 40% | 1011.1 hPa | 0 mm | - | - | - |
| 1777883533 | 20.56° C | 38% | 1011.3 hPa | 0 mm | - | - | - |
| 1777881731 | 18.89° C | 44% | 1011.6 hPa | 0 mm | - | - | - |
| 1777879930 | 16.67° C | 59% | 1011.8 hPa | 0 mm | - | - | - |
| 1777878132 | 14.44° C | 67% | 1011.9 hPa | 0 mm | - | - | - |
| 1777876331 | 11.67° C | 76% | 1011.9 hPa | 0 mm | - | - | - |
| 1777874532 | 8.89° C | 86% | 1012.1 hPa | 0 mm | - | - | - |
| 1777872731 | 7.78° C | 89% | 1012.1 hPa | 0 mm | - | - | - |
| 1777870930 | 6.67° C | 88% | 1011.9 hPa | 0 mm | - | - | - |
| 1777869131 | 6.67° C | 86% | 1012 hPa | 0 mm | - | - | - |
| 1777867331 | 6.67° C | 86% | 1012 hPa | 0 mm | - | - | - |
| 1777865531 | 7.22° C | 84% | 1012.3 hPa | 0 mm | - | - | - |
* Rain since midnight (hover to see other rain measurements)
** Current wind speed in m/s (hover to see current wind gust speed)